createdAt,value
2023-02-11T00:01:13.876Z,17.40
2023-02-11T00:03:41.358Z,19.47
2023-02-11T00:06:11.719Z,18.77
2023-02-11T00:08:39.393Z,18.77
2023-02-11T00:11:07.050Z,16.93
2023-02-11T00:13:34.478Z,18.87
2023-02-11T00:16:10.402Z,24.97
2023-02-11T00:18:38.014Z,23.00
2023-02-11T00:21:14.555Z,24.30
2023-02-11T00:23:42.312Z,23.40
2023-02-11T00:26:30.677Z,21.80
2023-02-11T00:28:58.039Z,20.30
2023-02-11T00:31:26.265Z,18.83
2023-02-11T00:33:54.475Z,18.73
2023-02-11T00:36:27.332Z,18.33
2023-02-11T00:38:55.999Z,19.07
2023-02-11T00:41:24.115Z,18.73
2023-02-11T00:43:52.705Z,18.90
2023-02-11T00:46:20.282Z,18.50
2023-02-11T00:48:48.003Z,18.90
2023-02-11T00:51:15.509Z,18.57
2023-02-11T00:53:43.353Z,18.80
2023-02-11T00:56:10.677Z,18.20
2023-02-11T00:58:38.261Z,17.87
2023-02-11T01:01:05.506Z,17.57
2023-02-11T01:03:33.268Z,18.50
2023-02-11T01:06:00.761Z,18.97
2023-02-11T01:08:28.260Z,17.77
2023-02-11T01:11:01.025Z,17.50
2023-02-11T01:13:30.660Z,17.40
2023-02-11T01:15:58.288Z,16.67
2023-02-11T01:18:25.937Z,16.53
2023-02-11T01:20:54.338Z,16.60
2023-02-11T01:23:21.706Z,17.37
2023-02-11T01:25:49.973Z,17.70
2023-02-11T01:28:19.702Z,16.50
2023-02-11T01:30:47.829Z,16.67
2023-02-11T01:33:15.247Z,15.97
2023-02-11T01:35:43.464Z,15.47
2023-02-11T01:38:20.749Z,15.63
2023-02-11T01:40:55.176Z,15.53
2023-02-11T01:43:24.734Z,15.17
2023-02-11T01:45:58.186Z,16.33
2023-02-11T01:48:28.144Z,15.20
2023-02-11T01:51:08.963Z,15.17
2023-02-11T01:53:57.288Z,15.47
2023-02-11T01:56:45.122Z,14.93
2023-02-11T01:59:20.064Z,15.00
2023-02-11T02:01:52.057Z,14.17
2023-02-11T02:04:20.522Z,14.57
2023-02-11T02:07:08.206Z,14.80
2023-02-11T02:09:44.321Z,15.73
2023-02-11T02:12:11.520Z,14.93
2023-02-11T02:14:40.648Z,14.43
2023-02-11T02:17:14.976Z,15.63
2023-02-11T02:20:05.480Z,15.23
2023-02-11T02:23:02.163Z,15.77
2023-02-11T02:25:51.051Z,15.30
2023-02-11T02:28:52.985Z,14.47
2023-02-11T02:31:43.556Z,15.40
2023-02-11T02:34:30.679Z,15.20
2023-02-11T02:37:08.409Z,14.60
2023-02-11T02:39:37.510Z,14.60
2023-02-11T02:42:05.733Z,13.53
2023-02-11T02:44:34.372Z,14.33
2023-02-11T02:47:01.869Z,14.67
2023-02-11T02:49:29.410Z,14.10
2023-02-11T02:52:24.944Z,13.90
2023-02-11T02:55:23.432Z,14.03
2023-02-11T02:58:24.506Z,14.17
2023-02-11T03:01:09.620Z,13.93
2023-02-11T03:04:05.848Z,13.70
2023-02-11T03:07:03.065Z,13.70
2023-02-11T03:09:34.937Z,13.57
2023-02-11T03:12:04.650Z,13.67
2023-02-11T03:14:33.392Z,13.30
2023-02-11T03:17:02.979Z,13.20
2023-02-11T03:19:43.569Z,13.10
2023-02-11T03:22:36.554Z,12.80
2023-02-11T03:25:04.847Z,13.10
2023-02-11T03:27:51.456Z,11.87
2023-02-11T03:30:31.658Z,11.17
2023-02-11T03:33:08.912Z,11.73
2023-02-11T03:35:41.578Z,11.47
2023-02-11T03:38:22.498Z,10.70
2023-02-11T03:40:51.197Z,9.93
2023-02-11T03:43:23.246Z,9.13
2023-02-11T03:45:53.556Z,9.50
2023-02-11T03:48:30.201Z,9.43
2023-02-11T03:51:00.487Z,9.33
2023-02-11T03:53:27.999Z,9.57
2023-02-11T03:55:58.120Z,9.93
2023-02-11T03:58:25.407Z,9.37
2023-02-11T04:00:52.756Z,9.40
2023-02-11T04:03:20.083Z,9.43
2023-02-11T04:05:48.005Z,8.90
2023-02-11T04:08:15.532Z,9.33
2023-02-11T04:10:42.724Z,8.90
2023-02-11T04:13:09.942Z,9.57
2023-02-11T04:15:37.207Z,9.10
2023-02-11T04:18:05.003Z,8.60
2023-02-11T04:20:32.388Z,8.60
2023-02-11T04:22:59.707Z,8.47
2023-02-11T04:25:27.390Z,8.50
2023-02-11T04:27:54.866Z,8.60
2023-02-11T04:30:22.453Z,9.40
2023-02-11T04:32:49.686Z,8.93
2023-02-11T04:35:17.136Z,9.03
2023-02-11T04:37:44.298Z,9.03
2023-02-11T04:40:11.749Z,8.27
2023-02-11T04:42:38.979Z,8.77
2023-02-11T04:45:07.796Z,10.10
2023-02-11T04:47:35.160Z,9.00
2023-02-11T04:50:02.415Z,9.33
2023-02-11T04:52:29.744Z,8.87
2023-02-11T04:54:56.945Z,9.10
2023-02-11T04:57:24.382Z,9.03
2023-02-11T04:59:51.780Z,9.37
2023-02-11T05:02:19.125Z,9.23
2023-02-11T05:04:46.426Z,8.67
2023-02-11T05:07:13.875Z,9.10
2023-02-11T05:09:41.109Z,8.70
2023-02-11T05:12:08.336Z,9.13
2023-02-11T05:14:35.737Z,8.90
2023-02-11T05:17:03.205Z,9.13
2023-02-11T05:19:32.033Z,9.23
2023-02-11T05:22:03.068Z,8.87
2023-02-11T05:24:33.805Z,8.57
2023-02-11T05:27:01.861Z,8.73
2023-02-11T05:29:29.715Z,8.50
2023-02-11T05:31:58.458Z,9.10
2023-02-11T05:34:25.761Z,9.07
2023-02-11T05:36:53.203Z,8.87
2023-02-11T05:39:20.629Z,9.50
2023-02-11T05:41:47.924Z,8.83
2023-02-11T05:44:15.288Z,8.87
2023-02-11T05:46:42.735Z,8.00
2023-02-11T05:49:10.187Z,9.23
2023-02-11T05:51:37.469Z,8.83
2023-02-11T05:54:04.878Z,9.00
2023-02-11T05:56:32.106Z,8.70
2023-02-11T05:59:00.430Z,8.27
2023-02-11T06:01:28.111Z,8.33
2023-02-11T06:03:55.458Z,8.33
2023-02-11T06:06:23.049Z,7.97
2023-02-11T06:08:50.466Z,8.03
2023-02-11T06:11:18.678Z,8.13
2023-02-11T06:13:45.916Z,8.10
2023-02-11T06:16:13.377Z,8.47
2023-02-11T06:18:40.880Z,7.60
2023-02-11T06:21:10.005Z,8.03
2023-02-11T06:23:37.818Z,7.47
2023-02-11T06:26:09.441Z,7.20
2023-02-11T06:28:39.340Z,8.63
2023-02-11T06:31:08.370Z,9.00
2023-02-11T06:33:36.355Z,8.53
2023-02-11T06:36:05.361Z,8.83
2023-02-11T06:38:32.530Z,8.27
2023-02-11T06:40:59.907Z,8.37
2023-02-11T06:43:27.080Z,7.47
2023-02-11T06:45:55.635Z,6.80
2023-02-11T06:48:23.542Z,7.30
2023-02-11T06:50:50.978Z,6.70
2023-02-11T06:53:18.274Z,6.60
2023-02-11T06:55:45.496Z,6.53
2023-02-11T06:58:12.988Z,6.37
2023-02-11T07:00:40.470Z,6.47
2023-02-11T07:03:08.648Z,6.87
2023-02-11T07:05:38.154Z,6.80
2023-02-11T07:08:05.433Z,6.17
2023-02-11T07:10:34.119Z,6.67
2023-02-11T07:13:01.333Z,6.80
2023-02-11T07:15:28.614Z,6.83
2023-02-11T07:17:55.904Z,6.33
2023-02-11T07:20:23.154Z,7.90
2023-02-11T07:22:50.354Z,7.47
2023-02-11T07:25:17.951Z,8.03
2023-02-11T07:27:45.126Z,7.13
2023-02-11T07:30:13.100Z,6.13
2023-02-11T07:32:40.515Z,6.80
2023-02-11T07:35:08.148Z,6.60
2023-02-11T07:37:35.979Z,6.80
2023-02-11T07:40:03.627Z,8.50
2023-02-11T07:42:30.853Z,6.70
2023-02-11T07:44:58.075Z,6.07
2023-02-11T07:47:25.586Z,6.20
2023-02-11T07:49:56.097Z,6.67
2023-02-11T07:52:23.937Z,6.70
2023-02-11T07:54:51.163Z,7.63
2023-02-11T07:57:18.345Z,7.33
2023-02-11T07:59:45.570Z,7.33
2023-02-11T08:02:12.853Z,7.47
2023-02-11T08:04:40.155Z,6.87
2023-02-11T08:07:07.384Z,6.60
2023-02-11T08:09:34.710Z,6.70
2023-02-11T08:12:02.273Z,6.53
2023-02-11T08:14:29.475Z,6.80
2023-02-11T08:16:56.679Z,6.50
2023-02-11T08:19:23.835Z,6.40
2023-02-11T08:21:51.016Z,6.57
2023-02-11T08:24:18.268Z,6.73
2023-02-11T08:26:45.689Z,6.80
2023-02-11T08:29:14.994Z,6.60
2023-02-11T08:31:45.903Z,6.93
2023-02-11T08:34:14.372Z,7.33
2023-02-11T08:36:43.328Z,6.90
2023-02-11T08:39:20.837Z,7.80
2023-02-11T08:41:50.453Z,7.00
2023-02-11T08:44:19.539Z,6.90
2023-02-11T08:46:47.626Z,7.30
2023-02-11T08:49:15.296Z,7.70
2023-02-11T08:51:42.818Z,8.37
2023-02-11T08:54:10.424Z,8.50
2023-02-11T08:56:39.198Z,8.67
2023-02-11T08:59:07.352Z,9.27
2023-02-11T09:01:34.982Z,8.63
2023-02-11T09:04:02.230Z,8.97
2023-02-11T09:06:29.702Z,8.57
2023-02-11T09:08:57.972Z,9.13
2023-02-11T09:11:32.397Z,9.77
2023-02-11T09:14:00.453Z,10.23
2023-02-11T09:16:30.159Z,9.43
2023-02-11T09:18:59.012Z,9.13
2023-02-11T09:21:27.017Z,8.80
2023-02-11T09:23:54.987Z,9.57
2023-02-11T09:26:25.852Z,8.77
2023-02-11T09:28:53.049Z,8.70
2023-02-11T09:31:23.068Z,9.37
2023-02-11T09:33:56.230Z,8.33
2023-02-11T09:36:25.828Z,9.03
2023-02-11T09:38:53.487Z,9.63
2023-02-11T09:41:23.539Z,8.97
2023-02-11T09:43:57.311Z,8.03
2023-02-11T09:46:27.412Z,8.07
2023-02-11T09:48:56.166Z,8.27
2023-02-11T09:51:57.946Z,8.17
2023-02-11T09:54:37.338Z,8.00
2023-02-11T09:57:06.189Z,7.97
2023-02-11T09:59:33.775Z,8.37
2023-02-11T10:02:14.766Z,7.80
2023-02-11T10:05:01.422Z,7.97
2023-02-11T10:07:51.362Z,8.40
2023-02-11T10:10:39.441Z,8.20
2023-02-11T10:13:29.598Z,8.47
2023-02-11T10:16:22.835Z,9.03
2023-02-11T10:19:05.162Z,8.53
2023-02-11T10:21:46.507Z,9.10
2023-02-11T10:24:16.797Z,9.17
2023-02-11T10:26:45.701Z,9.47
2023-02-11T10:29:32.589Z,9.00
2023-02-11T10:32:03.768Z,9.57
2023-02-11T10:34:31.092Z,10.20
2023-02-11T10:36:58.433Z,10.10
2023-02-11T10:39:27.598Z,10.63
2023-02-11T10:42:04.960Z,10.77
2023-02-11T10:44:58.738Z,10.03
2023-02-11T10:47:30.060Z,10.13
2023-02-11T10:50:03.636Z,10.50
2023-02-11T10:52:31.319Z,11.57
2023-02-11T10:55:05.944Z,10.13
2023-02-11T10:57:36.509Z,10.63
2023-02-11T11:00:40.047Z,11.47
2023-02-11T11:03:28.968Z,10.70
2023-02-11T11:06:02.101Z,12.07
2023-02-11T11:08:49.511Z,10.60
2023-02-11T11:11:26.172Z,11.47
2023-02-11T11:13:53.302Z,10.90
2023-02-11T11:16:30.528Z,12.43
2023-02-11T11:19:06.842Z,10.47
2023-02-11T11:21:42.591Z,10.50
2023-02-11T11:24:39.921Z,9.83
2023-02-11T11:27:07.722Z,9.97
2023-02-11T11:29:42.704Z,10.87
2023-02-11T11:32:15.132Z,10.60
2023-02-11T11:34:44.958Z,10.50
2023-02-11T11:37:21.251Z,10.47
2023-02-11T11:40:02.518Z,10.50
2023-02-11T11:42:35.126Z,10.77
2023-02-11T11:45:24.783Z,9.80
2023-02-11T11:47:58.005Z,9.60
2023-02-11T11:50:34.938Z,10.20
2023-02-11T11:53:24.902Z,9.93
2023-02-11T11:56:01.555Z,13.33
2023-02-11T11:58:30.154Z,9.67
2023-02-11T12:01:22.761Z,9.90
2023-02-11T12:04:07.635Z,9.63
2023-02-11T12:07:10.568Z,16.53
2023-02-11T12:10:12.600Z,9.87
2023-02-11T12:12:46.916Z,10.40
2023-02-11T12:15:32.780Z,13.67
2023-02-11T12:18:09.064Z,15.33
2023-02-11T12:21:03.646Z,14.17
2023-02-11T12:23:51.558Z,10.37
2023-02-11T12:26:22.810Z,9.90
2023-02-11T12:29:45.194Z,10.20
2023-02-11T12:32:33.329Z,9.67
2023-02-11T12:35:24.142Z,10.60
2023-02-11T12:38:03.235Z,10.40
2023-02-11T12:40:45.012Z,8.83
2023-02-11T12:43:17.666Z,9.27
2023-02-11T12:46:32.210Z,9.87
2023-02-11T12:49:24.530Z,9.40
2023-02-11T12:52:04.623Z,9.47
2023-02-11T12:54:48.636Z,9.10
2023-02-11T12:57:26.517Z,9.50
2023-02-11T13:00:17.160Z,9.27
2023-02-11T13:03:12.457Z,9.33
2023-02-11T13:05:54.196Z,9.00
2023-02-11T13:08:31.353Z,9.17
2023-02-11T13:11:02.465Z,9.13
2023-02-11T13:13:35.577Z,9.53
2023-02-11T13:16:08.420Z,9.03
2023-02-11T13:18:58.447Z,9.20
2023-02-11T13:22:02.374Z,9.03
2023-02-11T13:24:50.799Z,10.33
2023-02-11T13:27:36.364Z,9.60
2023-02-11T13:30:13.084Z,9.80
2023-02-11T13:32:55.517Z,9.93
2023-02-11T13:35:34.851Z,9.80
2023-02-11T13:38:21.477Z,9.77
2023-02-11T13:41:23.449Z,9.67
2023-02-11T13:44:04.262Z,9.60
2023-02-11T13:46:53.901Z,9.93
2023-02-11T13:49:29.588Z,9.80
2023-02-11T13:51:57.817Z,9.80
2023-02-11T13:54:35.390Z,9.63
2023-02-11T13:57:35.714Z,9.23
2023-02-11T14:00:35.382Z,9.00
2023-02-11T14:03:30.167Z,9.07
2023-02-11T14:06:27.731Z,9.57
2023-02-11T14:09:10.137Z,8.23
2023-02-11T14:11:43.092Z,8.50
2023-02-11T14:14:23.788Z,9.00
2023-02-11T14:17:00.815Z,9.13
2023-02-11T14:19:35.353Z,8.77
2023-02-11T14:22:05.727Z,9.70
2023-02-11T14:24:32.852Z,9.17
2023-02-11T14:27:42.056Z,9.60
2023-02-11T14:30:26.846Z,8.70
2023-02-11T14:33:18.919Z,9.17
2023-02-11T14:36:00.411Z,9.30
2023-02-11T14:38:42.613Z,8.97
2023-02-11T14:41:23.947Z,9.27
2023-02-11T14:43:58.334Z,8.93
2023-02-11T14:46:35.425Z,8.87
2023-02-11T14:49:05.109Z,9.93
2023-02-11T14:51:36.395Z,9.00
2023-02-11T14:54:17.059Z,9.13
2023-02-11T14:56:46.661Z,9.43
2023-02-11T14:59:19.917Z,9.50
2023-02-11T15:01:50.876Z,9.63
2023-02-11T15:04:27.498Z,9.47
2023-02-11T15:06:57.455Z,10.30
2023-02-11T15:09:33.039Z,10.33
2023-02-11T15:12:00.554Z,9.83
2023-02-11T15:14:33.484Z,10.83
2023-02-11T15:17:04.411Z,11.13
2023-02-11T15:19:39.504Z,11.13
2023-02-11T15:22:32.701Z,12.03
2023-02-11T15:25:03.800Z,12.13
2023-02-11T15:27:40.192Z,13.27
2023-02-11T15:30:29.453Z,12.47
2023-02-11T15:33:03.228Z,14.10
2023-02-11T15:35:37.772Z,13.43
2023-02-11T15:38:05.487Z,13.97
2023-02-11T15:40:36.121Z,15.07
2023-02-11T15:43:06.337Z,14.13
2023-02-11T15:45:36.241Z,14.43
2023-02-11T15:48:20.151Z,14.33
2023-02-11T15:51:01.010Z,14.70
2023-02-11T15:53:36.373Z,13.80
2023-02-11T15:56:25.453Z,13.97
2023-02-11T15:59:00.011Z,14.90
2023-02-11T16:01:35.484Z,14.37
2023-02-11T16:04:05.256Z,14.77
2023-02-11T16:06:40.854Z,14.00
2023-02-11T16:09:13.624Z,14.70
2023-02-11T16:11:47.198Z,15.53
2023-02-11T16:14:27.736Z,15.73
2023-02-11T16:17:08.670Z,14.97
2023-02-11T16:19:36.789Z,15.77
2023-02-11T16:22:10.066Z,15.37
2023-02-11T16:24:38.998Z,15.30
2023-02-11T16:27:39.669Z,15.33
2023-02-11T16:30:29.138Z,15.93
2023-02-11T16:32:56.364Z,16.47
2023-02-11T16:35:23.809Z,16.40
2023-02-11T16:37:51.121Z,16.07
2023-02-11T16:40:18.454Z,15.20
2023-02-11T16:42:45.573Z,16.00
2023-02-11T16:45:16.977Z,15.80
2023-02-11T16:47:46.280Z,16.17
2023-02-11T16:50:22.257Z,15.53
2023-02-11T16:52:49.991Z,16.40
2023-02-11T16:55:17.306Z,17.53
2023-02-11T16:57:44.708Z,16.87
2023-02-11T17:00:16.456Z,16.30
2023-02-11T17:02:43.905Z,16.63
2023-02-11T17:05:20.328Z,16.50
2023-02-11T17:07:47.648Z,16.63
2023-02-11T17:10:22.581Z,18.03
2023-02-11T17:12:51.111Z,18.43
2023-02-11T17:15:18.250Z,18.80
2023-02-11T17:17:45.820Z,18.50
2023-02-11T17:20:14.126Z,17.57
2023-02-11T17:22:41.576Z,16.93
2023-02-11T17:25:12.203Z,18.37
2023-02-11T17:27:39.569Z,18.10
2023-02-11T17:30:07.331Z,17.93
2023-02-11T17:32:34.679Z,18.00
2023-02-11T17:35:01.867Z,18.57
2023-02-11T17:37:29.230Z,18.17
2023-02-11T17:39:56.418Z,19.07
2023-02-11T17:42:23.628Z,20.77
2023-02-11T17:44:50.850Z,19.87
2023-02-11T17:47:17.969Z,20.10
2023-02-11T17:49:45.198Z,22.53
2023-02-11T17:52:12.407Z,19.70
2023-02-11T17:54:39.716Z,19.77
2023-02-11T17:57:06.874Z,18.07
2023-02-11T17:59:35.458Z,19.10
2023-02-11T18:02:03.922Z,18.83
2023-02-11T18:04:32.530Z,19.60
2023-02-11T18:06:59.770Z,19.93
2023-02-11T18:09:27.186Z,19.70
2023-02-11T18:11:54.971Z,20.23
2023-02-11T18:14:22.959Z,20.80
2023-02-11T18:16:51.727Z,19.40
2023-02-11T18:19:19.314Z,19.87
2023-02-11T18:21:48.768Z,19.43
2023-02-11T18:24:16.985Z,18.37
2023-02-11T18:26:44.143Z,17.27
2023-02-11T18:29:11.348Z,16.80
2023-02-11T18:31:39.305Z,17.53
2023-02-11T18:34:07.780Z,17.33
2023-02-11T18:36:35.800Z,17.73
2023-02-11T18:39:04.902Z,17.63
2023-02-11T18:41:32.230Z,18.27
2023-02-11T18:44:02.629Z,20.30
2023-02-11T18:46:30.098Z,19.50
2023-02-11T18:48:57.398Z,18.50
2023-02-11T18:51:24.876Z,17.80
2023-02-11T18:53:52.179Z,18.90
2023-02-11T18:56:21.758Z,18.53
2023-02-11T18:58:51.202Z,19.43
2023-02-11T19:01:25.763Z,19.27
2023-02-11T19:03:54.169Z,18.60
2023-02-11T19:06:26.718Z,18.73
2023-02-11T19:08:59.004Z,19.63
2023-02-11T19:11:46.606Z,20.80
2023-02-11T19:14:15.452Z,20.17
2023-02-11T19:16:44.426Z,21.77
2023-02-11T19:19:12.558Z,22.93
2023-02-11T19:21:43.114Z,22.93
2023-02-11T19:24:11.504Z,22.67
2023-02-11T19:26:39.028Z,22.83
2023-02-11T19:29:06.883Z,22.47
2023-02-11T19:31:34.400Z,22.93
2023-02-11T19:34:03.607Z,22.40
2023-02-11T19:36:31.025Z,22.97
2023-02-11T19:39:02.033Z,22.13
2023-02-11T19:41:30.820Z,24.10
2023-02-11T19:43:58.004Z,22.80
2023-02-11T19:46:27.838Z,23.30
2023-02-11T19:48:55.091Z,22.80
2023-02-11T19:51:22.450Z,24.33
2023-02-11T19:53:51.205Z,24.33
2023-02-11T19:56:20.830Z,25.53
2023-02-11T19:58:48.274Z,24.97
2023-02-11T20:01:18.850Z,24.67
2023-02-11T20:03:50.073Z,25.03
2023-02-11T20:06:24.141Z,28.00
2023-02-11T20:09:03.329Z,28.67
2023-02-11T20:11:31.227Z,26.27
2023-02-11T20:13:59.355Z,23.73
2023-02-11T20:16:41.008Z,25.77
2023-02-11T20:19:18.096Z,24.97
2023-02-11T20:21:47.748Z,25.13
2023-02-11T20:24:17.162Z,24.67
2023-02-11T20:26:46.378Z,25.93
2023-02-11T20:29:15.288Z,25.83
2023-02-11T20:31:42.914Z,26.20
2023-02-11T20:34:11.884Z,25.23
2023-02-11T20:36:40.399Z,25.90
2023-02-11T20:39:08.788Z,24.00
2023-02-11T20:41:39.664Z,25.30
2023-02-11T20:44:10.849Z,24.70
2023-02-11T20:46:40.548Z,24.33
2023-02-11T20:49:10.714Z,24.23
2023-02-11T20:51:38.159Z,23.30
2023-02-11T20:54:06.559Z,23.57
2023-02-11T20:56:36.899Z,23.70
2023-02-11T20:59:05.498Z,23.07
2023-02-11T21:01:36.339Z,24.87
2023-02-11T21:04:07.836Z,27.70
2023-02-11T21:06:40.526Z,26.33
2023-02-11T21:09:10.498Z,25.63
2023-02-11T21:11:37.708Z,24.43
2023-02-11T21:14:04.896Z,24.37
2023-02-11T21:16:32.842Z,22.43
2023-02-11T21:19:00.579Z,21.23
2023-02-11T21:21:27.828Z,21.63
2023-02-11T21:23:56.053Z,20.47
2023-02-11T21:26:23.608Z,20.57
2023-02-11T21:28:51.903Z,21.00
2023-02-11T21:31:22.278Z,20.20
2023-02-11T21:33:50.735Z,20.50
2023-02-11T21:36:18.211Z,22.53
2023-02-11T21:38:45.498Z,23.83
2023-02-11T21:41:12.798Z,23.43
2023-02-11T21:43:40.151Z,24.50
2023-02-11T21:46:14.835Z,22.70
2023-02-11T21:48:42.587Z,21.97
2023-02-11T21:51:14.685Z,21.97
2023-02-11T21:53:41.858Z,22.23
2023-02-11T21:56:17.305Z,22.43
2023-02-11T21:58:46.306Z,21.50
2023-02-11T22:01:22.732Z,21.70
2023-02-11T22:03:50.255Z,20.93
2023-02-11T22:06:21.337Z,21.20
2023-02-11T22:08:49.817Z,21.00
2023-02-11T22:11:18.037Z,20.93
2023-02-11T22:13:46.057Z,20.23
2023-02-11T22:16:16.871Z,20.07
2023-02-11T22:18:46.876Z,20.63
2023-02-11T22:21:17.222Z,21.03
2023-02-11T22:23:45.176Z,21.40
2023-02-11T22:26:15.372Z,21.63
2023-02-11T22:28:43.182Z,20.23
2023-02-11T22:31:31.425Z,20.87
2023-02-11T22:33:59.415Z,19.87
2023-02-11T22:36:35.147Z,19.53
2023-02-11T22:39:04.701Z,20.13
2023-02-11T22:41:32.324Z,19.30
2023-02-11T22:43:59.837Z,20.37
2023-02-11T22:46:27.065Z,20.90
2023-02-11T22:48:54.899Z,20.17
2023-02-11T22:51:24.592Z,21.73
2023-02-11T22:54:00.371Z,21.17
2023-02-11T22:56:29.161Z,23.97
2023-02-11T22:58:58.356Z,43.57
2023-02-11T23:01:25.848Z,21.30
2023-02-11T23:03:53.037Z,21.63
2023-02-11T23:06:20.200Z,20.80
2023-02-11T23:08:47.638Z,23.80
2023-02-11T23:11:18.663Z,23.90
2023-02-11T23:13:48.091Z,23.93
2023-02-11T23:16:19.012Z,24.77
2023-02-11T23:18:48.002Z,23.27
2023-02-11T23:21:18.790Z,25.17
2023-02-11T23:23:45.993Z,20.13
2023-02-11T23:26:15.559Z,19.37
2023-02-11T23:28:45.923Z,20.03
2023-02-11T23:31:19.424Z,20.77
2023-02-11T23:33:47.750Z,20.37
2023-02-11T23:36:16.168Z,20.13
2023-02-11T23:38:43.638Z,20.27
2023-02-11T23:41:12.138Z,18.53
2023-02-11T23:43:39.341Z,19.53
2023-02-11T23:46:07.648Z,18.10
2023-02-11T23:48:36.597Z,26.57
2023-02-11T23:51:04.397Z,21.27
2023-02-11T23:53:31.636Z,20.30
2023-02-11T23:55:58.795Z,19.80
2023-02-11T23:58:26.020Z,21.90
